createdAt,value
2019-06-07T00:02:19.028Z,17.90
2019-06-07T00:04:48.772Z,15.75
2019-06-07T00:07:21.763Z,18.42
2019-06-07T00:09:49.814Z,16.40
2019-06-07T00:12:21.414Z,15.30
2019-06-07T00:14:50.987Z,14.40
2019-06-07T00:17:20.661Z,15.15
2019-06-07T00:19:50.541Z,12.98
2019-06-07T00:22:32.430Z,14.68
2019-06-07T00:24:51.707Z,15.23
2019-06-07T00:27:27.649Z,11.50
2019-06-07T00:29:57.362Z,14.63
2019-06-07T00:32:27.189Z,13.62
2019-06-07T00:34:56.844Z,14.68
2019-06-07T00:37:26.499Z,16.12
2019-06-07T00:40:13.378Z,14.58
2019-06-07T00:42:27.611Z,14.78
2019-06-07T00:44:57.379Z,17.15
2019-06-07T00:47:27.083Z,14.78
2019-06-07T00:49:56.724Z,18.77
2019-06-07T00:54:57.820Z,19.85
2019-06-07T00:57:27.503Z,14.40
2019-06-07T00:59:57.211Z,14.93
2019-06-07T01:02:31.215Z,14.13
2019-06-07T01:04:58.344Z,14.63
2019-06-07T01:07:28.048Z,16.65
2019-06-07T01:09:57.739Z,14.78
2019-06-07T01:12:27.469Z,13.53
2019-06-07T01:14:57.228Z,15.78
2019-06-07T01:17:41.192Z,14.53
2019-06-07T01:19:59.451Z,17.45
2019-06-07T01:22:29.590Z,17.25
2019-06-07T01:24:59.428Z,16.52
2019-06-07T01:27:29.163Z,18.17
2019-06-07T01:29:58.889Z,16.40
2019-06-07T01:32:31.766Z,18.32
2019-06-07T01:35:00.364Z,16.37
2019-06-07T01:37:30.530Z,15.93
2019-06-07T01:40:00.339Z,17.95
2019-06-07T01:42:31.041Z,19.00
2019-06-07T01:45:00.947Z,21.87
2019-06-07T01:47:32.015Z,18.27
2019-06-07T01:50:02.300Z,17.10
2019-06-07T01:52:32.292Z,14.95
2019-06-07T01:55:02.158Z,16.80
2019-06-07T01:57:45.652Z,18.12
2019-06-07T02:00:03.836Z,16.05
2019-06-07T02:02:33.706Z,20.12
2019-06-07T02:05:03.611Z,17.35
2019-06-07T02:07:35.081Z,15.75
2019-06-07T02:10:05.918Z,17.17
2019-06-07T02:12:42.865Z,16.85
2019-06-07T02:15:08.939Z,17.98
2019-06-07T02:17:38.911Z,18.55
2019-06-07T02:20:09.562Z,18.25
2019-06-07T02:22:40.830Z,21.73
2019-06-07T02:25:37.399Z,19.82
2019-06-07T02:27:42.207Z,19.23
2019-06-07T02:32:43.745Z,19.42
2019-06-07T02:35:14.553Z,23.60
2019-06-07T02:37:44.290Z,22.75
2019-06-07T02:40:14.436Z,23.25
2019-06-07T02:42:44.281Z,19.20
2019-06-07T02:45:14.120Z,18.52
2019-06-07T02:47:45.520Z,19.80
2019-06-07T02:50:15.902Z,17.17
2019-06-07T02:52:45.889Z,15.28
2019-06-07T02:55:16.462Z,18.62
2019-06-07T02:57:46.275Z,19.37
2019-06-07T03:02:54.096Z,17.25
2019-06-07T03:05:25.092Z,18.70
2019-06-07T03:07:55.583Z,15.65
2019-06-07T03:10:28.568Z,17.92
2019-06-07T03:12:57.269Z,18.90
2019-06-07T03:15:35.467Z,17.50
2019-06-07T03:18:22.675Z,18.98
2019-06-07T03:21:05.077Z,17.05
2019-06-07T03:23:28.805Z,19.60
2019-06-07T03:26:00.435Z,18.37
2019-06-07T03:28:34.422Z,20.50
2019-06-07T03:31:03.342Z,23.55
2019-06-07T03:33:41.054Z,22.42
2019-06-07T03:36:23.210Z,23.02
2019-06-07T03:38:39.829Z,20.52
2019-06-07T03:41:09.763Z,17.62
2019-06-07T03:43:42.001Z,20.68
2019-06-07T03:46:11.785Z,15.93
2019-06-07T03:48:41.707Z,22.85
2019-06-07T03:51:24.276Z,23.60
2019-06-07T03:53:43.239Z,25.55
2019-06-07T03:56:13.647Z,26.10
2019-06-07T03:58:49.819Z,17.77
2019-06-07T04:01:15.284Z,21.17
2019-06-07T04:03:51.398Z,21.65
2019-06-07T04:06:16.442Z,22.50
2019-06-07T04:08:46.388Z,18.02
2019-06-07T04:11:16.232Z,19.75
2019-06-07T04:13:45.907Z,22.90
2019-06-07T04:16:15.548Z,26.33
2019-06-07T04:18:45.393Z,23.50
2019-06-07T04:21:15.258Z,24.47
2019-06-07T04:23:48.124Z,23.62
2019-06-07T04:26:19.040Z,23.30
2019-06-07T04:29:31.714Z,20.75
2019-06-07T04:31:20.234Z,23.47
2019-06-07T04:33:50.342Z,26.40
2019-06-07T04:36:39.233Z,23.47
2019-06-07T04:38:53.895Z,21.82
2019-06-07T04:41:25.529Z,24.60
2019-06-07T04:43:55.527Z,25.35
2019-06-07T04:46:25.763Z,27.35
2019-06-07T04:48:56.083Z,23.07
2019-06-07T04:51:27.091Z,22.55
2019-06-07T04:53:56.773Z,26.85
2019-06-07T04:56:26.529Z,25.05
2019-06-07T04:58:56.296Z,27.17
2019-06-07T05:01:27.740Z,27.20
2019-06-07T05:03:57.309Z,24.02
2019-06-07T05:06:26.974Z,20.55
2019-06-07T05:08:56.654Z,30.80
2019-06-07T05:11:26.457Z,32.48
2019-06-07T05:13:56.308Z,26.48
2019-06-07T05:16:25.983Z,29.50
2019-06-07T05:18:55.642Z,27.55
2019-06-07T05:21:25.335Z,30.92
2019-06-07T05:24:07.396Z,25.12
2019-06-07T05:26:30.489Z,25.55
2019-06-07T05:29:01.131Z,26.70
2019-06-07T05:31:31.786Z,25.05
2019-06-07T05:34:08.042Z,22.30
2019-06-07T05:36:41.408Z,27.45
2019-06-07T05:39:10.202Z,29.23
2019-06-07T05:41:42.734Z,33.18
2019-06-07T05:44:13.122Z,50.35
2019-06-07T05:46:46.708Z,29.45
2019-06-07T05:49:14.111Z,33.33
2019-06-07T05:51:45.036Z,28.55
2019-06-07T05:54:15.115Z,32.95
2019-06-07T05:56:45.359Z,29.12
2019-06-07T05:59:15.250Z,30.77
2019-06-07T06:01:55.938Z,25.35
2019-06-07T06:04:16.261Z,34.05
2019-06-07T06:06:47.209Z,26.17
2019-06-07T06:09:17.314Z,30.32
2019-06-07T06:11:59.547Z,26.60
2019-06-07T06:14:18.810Z,34.18
2019-06-07T06:16:50.214Z,31.12
2019-06-07T06:19:19.940Z,35.10
2019-06-07T06:21:49.587Z,32.00
2019-06-07T06:24:21.149Z,27.52
2019-06-07T06:26:55.085Z,38.55
2019-06-07T06:29:22.163Z,29.85
2019-06-07T06:32:39.524Z,35.20
2019-06-07T06:34:23.289Z,32.23
2019-06-07T06:36:53.124Z,33.78
2019-06-07T06:39:22.882Z,28.57
2019-06-07T06:42:01.078Z,31.02
2019-06-07T06:44:23.910Z,28.52
2019-06-07T06:46:58.153Z,27.85
2019-06-07T06:49:25.092Z,33.60
2019-06-07T06:51:54.772Z,29.77
2019-06-07T06:54:40.170Z,29.18
2019-06-07T06:57:17.309Z,25.10
2019-06-07T06:59:39.998Z,25.82
2019-06-07T07:02:09.338Z,32.23
2019-06-07T07:04:41.824Z,26.77
2019-06-07T07:07:10.773Z,30.17
2019-06-07T07:09:43.774Z,25.12
2019-06-07T07:12:15.127Z,24.18
2019-06-07T07:14:47.345Z,23.55
2019-06-07T07:17:16.348Z,23.62
2019-06-07T07:19:48.453Z,26.20
2019-06-07T07:22:17.399Z,25.77
2019-06-07T07:24:49.754Z,29.35
2019-06-07T07:27:18.388Z,23.65
2019-06-07T07:29:56.406Z,21.87
2019-06-07T07:32:19.420Z,25.00
2019-06-07T07:34:51.795Z,25.55
2019-06-07T07:37:20.504Z,26.55
2019-06-07T07:39:54.098Z,23.47
2019-06-07T07:42:22.031Z,22.17
2019-06-07T07:44:54.610Z,28.00
2019-06-07T07:47:23.061Z,25.97
2019-06-07T07:49:56.476Z,25.92
2019-06-07T07:52:24.134Z,25.32
2019-06-07T07:54:57.791Z,20.30
2019-06-07T07:57:25.235Z,28.02
2019-06-07T08:00:25.271Z,23.98
2019-06-07T08:02:26.248Z,20.23
2019-06-07T08:05:25.557Z,25.48
2019-06-07T08:07:33.309Z,24.27
2019-06-07T08:10:04.066Z,23.62
2019-06-07T08:12:55.608Z,19.42
2019-06-07T08:15:06.451Z,27.50
2019-06-07T08:17:36.101Z,22.20
2019-06-07T08:20:06.326Z,22.27
2019-06-07T08:22:36.081Z,22.52
2019-06-07T08:25:06.067Z,20.37
2019-06-07T08:27:35.829Z,19.80
2019-06-07T08:30:35.041Z,19.37
2019-06-07T08:32:37.894Z,19.15
2019-06-07T08:35:08.305Z,18.50
2019-06-07T08:40:09.982Z,19.25
2019-06-07T08:42:59.709Z,16.60
2019-06-07T08:45:11.792Z,20.25
2019-06-07T08:47:41.428Z,19.57
2019-06-07T08:50:11.932Z,22.45
2019-06-07T08:52:40.917Z,19.27
2019-06-07T08:55:11.138Z,18.12
2019-06-07T08:57:40.071Z,24.60
2019-06-07T09:00:42.420Z,18.25
2019-06-07T09:02:40.864Z,21.77
2019-06-07T09:05:12.502Z,17.90
2019-06-07T09:07:41.390Z,18.77
2019-06-07T09:10:14.220Z,20.57
2019-06-07T09:12:43.604Z,17.75
2019-06-07T09:15:22.771Z,21.00
2019-06-07T09:18:30.199Z,21.35
2019-06-07T09:20:35.755Z,15.90
2019-06-07T09:22:49.494Z,19.32
2019-06-07T09:25:21.642Z,18.20
2019-06-07T09:27:51.067Z,18.48
2019-06-07T09:30:38.948Z,19.40
2019-06-07T09:33:09.119Z,17.40
2019-06-07T09:35:39.948Z,15.80
2019-06-07T09:38:23.703Z,17.82
2019-06-07T09:40:41.597Z,17.92
2019-06-07T09:45:42.663Z,15.30
2019-06-07T09:48:16.236Z,15.25
2019-06-07T09:50:43.891Z,17.15
2019-06-07T09:53:22.838Z,17.02
2019-06-07T09:55:44.882Z,16.50
2019-06-07T09:58:50.116Z,18.02
2019-06-07T10:00:46.095Z,15.60
2019-06-07T10:03:21.052Z,17.62
2019-06-07T10:05:47.288Z,16.60
2019-06-07T10:09:26.279Z,16.62
2019-06-07T10:10:48.431Z,15.90
2019-06-07T10:13:18.146Z,20.25
2019-06-07T10:15:47.923Z,16.65
2019-06-07T10:18:18.007Z,19.70
2019-06-07T10:20:48.066Z,19.62
2019-06-07T10:23:17.802Z,15.75
2019-06-07T10:25:47.463Z,14.55
2019-06-07T10:28:17.171Z,15.38
2019-06-07T10:30:46.920Z,19.00
2019-06-07T10:33:16.573Z,14.75
2019-06-07T10:35:46.294Z,14.47
2019-06-07T10:38:15.991Z,20.45
2019-06-07T10:40:45.734Z,14.40
2019-06-07T10:43:15.486Z,15.03
2019-06-07T10:45:45.239Z,16.87
2019-06-07T10:48:15.346Z,13.72
2019-06-07T10:50:46.548Z,14.95
2019-06-07T10:53:16.290Z,13.08
2019-06-07T10:55:45.967Z,15.03
2019-06-07T10:58:15.587Z,16.42
2019-06-07T11:00:45.254Z,12.45
2019-06-07T11:03:14.941Z,18.48
2019-06-07T11:05:44.653Z,15.55
2019-06-07T11:08:15.040Z,13.15
2019-06-07T11:10:44.954Z,14.00
2019-06-07T11:13:14.596Z,18.30
2019-06-07T11:15:44.408Z,16.52
2019-06-07T11:18:14.438Z,12.05
2019-06-07T11:20:44.738Z,14.15
2019-06-07T11:23:14.574Z,15.13
2019-06-07T11:25:44.301Z,12.00
2019-06-07T11:28:14.702Z,16.50
2019-06-07T11:30:44.556Z,16.10
2019-06-07T11:33:16.334Z,15.30
2019-06-07T11:35:45.643Z,13.48
2019-06-07T11:38:15.361Z,12.00
2019-06-07T11:40:45.114Z,13.88
2019-06-07T11:43:15.047Z,14.60
2019-06-07T11:45:44.774Z,12.68
2019-06-07T11:48:15.505Z,12.33
2019-06-07T11:50:45.344Z,12.65
2019-06-07T11:53:15.046Z,9.60
2019-06-07T11:55:44.779Z,12.82
2019-06-07T11:58:18.983Z,9.68
2019-06-07T12:00:47.479Z,10.40
2019-06-07T12:03:18.047Z,11.15
2019-06-07T12:05:47.954Z,10.60
2019-06-07T12:08:18.208Z,13.98
2019-06-07T12:10:48.286Z,13.65
2019-06-07T12:13:18.974Z,12.13
2019-06-07T12:15:49.387Z,14.13
2019-06-07T12:18:19.761Z,12.65
2019-06-07T12:20:49.569Z,11.20
2019-06-07T12:23:20.176Z,15.32
2019-06-07T12:25:50.021Z,11.00
2019-06-07T12:28:20.917Z,12.13
2019-06-07T12:30:50.701Z,11.33
2019-06-07T12:33:21.603Z,10.82
2019-06-07T12:35:51.512Z,11.03
2019-06-07T12:38:22.943Z,14.47
2019-06-07T12:40:57.551Z,11.57
2019-06-07T12:43:24.301Z,10.00
2019-06-07T12:45:54.029Z,12.15
2019-06-07T12:48:25.939Z,12.55
2019-06-07T12:50:55.211Z,8.63
2019-06-07T12:53:27.980Z,14.30
2019-06-07T12:55:59.886Z,8.30
2019-06-07T12:58:34.483Z,9.03
2019-06-07T13:01:01.861Z,12.35
2019-06-07T13:03:31.487Z,12.28
2019-06-07T13:06:01.272Z,12.28
2019-06-07T13:08:31.006Z,11.28
2019-06-07T13:11:14.077Z,10.55
2019-06-07T13:13:32.124Z,10.45
2019-06-07T13:16:01.925Z,7.28
2019-06-07T13:18:34.097Z,10.72
2019-06-07T13:21:05.445Z,10.88
2019-06-07T13:23:37.896Z,10.65
2019-06-07T13:26:07.596Z,8.30
2019-06-07T13:28:37.381Z,9.83
2019-06-07T13:31:07.069Z,9.73
2019-06-07T13:33:38.821Z,9.85
2019-06-07T13:36:08.178Z,11.97
2019-06-07T13:38:38.197Z,10.45
2019-06-07T13:41:07.831Z,9.28
2019-06-07T13:43:37.626Z,11.55
2019-06-07T13:46:07.250Z,10.35
2019-06-07T13:51:36.356Z,11.12
2019-06-07T13:54:06.113Z,9.95
2019-06-07T13:56:35.762Z,9.75
2019-06-07T13:59:05.598Z,11.73
2019-06-07T14:01:35.254Z,11.33
2019-06-07T14:04:05.008Z,14.35
2019-06-07T14:06:34.738Z,10.78
2019-06-07T14:09:05.907Z,11.85
2019-06-07T14:11:50.050Z,8.70
2019-06-07T14:14:06.966Z,9.23
2019-06-07T14:16:36.641Z,10.32
2019-06-07T14:19:06.313Z,7.28
2019-06-07T14:21:35.970Z,8.35
2019-06-07T14:24:05.760Z,8.78
2019-06-07T14:26:35.377Z,9.13
2019-06-07T14:29:05.154Z,9.35
2019-06-07T14:31:34.794Z,8.40
2019-06-07T14:34:04.577Z,6.95
2019-06-07T14:36:34.570Z,8.58
2019-06-07T14:39:05.556Z,7.75
2019-06-07T14:41:35.404Z,7.30
2019-06-07T14:44:05.511Z,5.97
2019-06-07T14:46:35.172Z,6.28
2019-06-07T14:49:04.816Z,8.35
2019-06-07T14:51:35.310Z,7.78
2019-06-07T14:54:05.235Z,6.50
2019-06-07T14:56:35.313Z,6.33
2019-06-07T14:59:05.332Z,8.95
2019-06-07T15:01:35.595Z,7.35
2019-06-07T15:04:05.873Z,6.78
2019-06-07T15:06:35.625Z,7.22
2019-06-07T15:09:06.842Z,9.83
2019-06-07T15:11:36.717Z,5.85
2019-06-07T15:14:06.706Z,7.78
2019-06-07T15:19:12.380Z,7.05
2019-06-07T15:21:42.220Z,6.83
2019-06-07T15:24:11.908Z,8.55
2019-06-07T15:26:41.679Z,8.25
2019-06-07T15:29:11.345Z,6.47
2019-06-07T15:31:41.037Z,4.50
2019-06-07T15:34:10.709Z,4.55
2019-06-07T15:36:40.356Z,5.90
2019-06-07T15:39:10.210Z,8.53
2019-06-07T15:41:40.041Z,6.10
2019-06-07T15:44:09.862Z,6.95
2019-06-07T15:52:01.280Z,8.50
2019-06-07T15:54:30.900Z,6.05
2019-06-07T15:57:03.980Z,5.85
2019-06-07T15:59:35.695Z,6.78
2019-06-07T16:02:05.036Z,7.62
2019-06-07T16:04:48.923Z,6.37
2019-06-07T16:07:18.835Z,7.08
2019-06-07T16:09:55.270Z,6.17
2019-06-07T16:12:24.980Z,8.95
2019-06-07T16:14:54.666Z,6.87
2019-06-07T16:17:24.468Z,5.20
2019-06-07T16:19:54.226Z,7.28
2019-06-07T16:22:23.955Z,7.08
2019-06-07T16:24:53.858Z,4.72
2019-06-07T16:29:59.800Z,4.40
2019-06-07T16:32:29.960Z,6.40
2019-06-07T16:34:59.680Z,7.28
2019-06-07T16:37:29.409Z,5.08
2019-06-07T16:39:59.290Z,6.30
2019-06-07T16:42:29.058Z,6.87
2019-06-07T16:45:01.591Z,5.25
2019-06-07T16:47:31.359Z,4.10
2019-06-07T16:50:01.076Z,5.22
2019-06-07T16:52:30.787Z,4.22
2019-06-07T16:55:01.818Z,4.58
2019-06-07T16:57:31.587Z,5.30
2019-06-07T17:00:01.235Z,5.50
2019-06-07T17:02:30.966Z,4.33
2019-06-07T17:05:00.620Z,5.45
2019-06-07T17:07:30.367Z,4.50
2019-06-07T17:10:00.070Z,5.78
2019-06-07T17:12:29.716Z,4.90
2019-06-07T17:14:59.362Z,4.97
2019-06-07T17:17:29.053Z,3.90
2019-06-07T17:19:58.733Z,5.25
2019-06-07T17:22:28.556Z,5.33
2019-06-07T17:24:58.271Z,4.37
2019-06-07T17:27:27.981Z,4.62
2019-06-07T17:29:57.809Z,4.03
2019-06-07T17:32:27.541Z,6.97
2019-06-07T17:34:57.271Z,8.30
2019-06-07T17:37:26.888Z,8.30
2019-06-07T17:39:56.616Z,8.50
2019-06-07T17:42:26.306Z,9.28
2019-06-07T17:44:55.946Z,8.78
2019-06-07T17:47:25.662Z,10.53
2019-06-07T17:49:55.326Z,10.58
2019-06-07T17:52:25.083Z,6.85
2019-06-07T17:54:54.781Z,10.40
2019-06-07T17:57:24.525Z,11.88
2019-06-07T17:59:54.202Z,7.87
2019-06-07T18:02:24.057Z,9.05
2019-06-07T18:04:53.936Z,11.57
2019-06-07T18:07:24.884Z,8.63
2019-06-07T18:09:55.981Z,10.35
2019-06-07T18:12:25.838Z,11.38
2019-06-07T18:14:55.693Z,10.05
2019-06-07T18:17:34.046Z,10.95
2019-06-07T18:19:56.773Z,8.30
2019-06-07T18:22:32.566Z,8.40
2019-06-07T18:25:02.821Z,12.00
2019-06-07T18:27:32.497Z,7.72
2019-06-07T18:30:10.797Z,8.20
2019-06-07T18:32:33.628Z,8.45
2019-06-07T18:35:03.372Z,9.85
2019-06-07T18:37:33.556Z,9.03
2019-06-07T18:40:04.004Z,8.68
2019-06-07T18:42:33.916Z,9.13
2019-06-07T18:45:03.808Z,13.45
2019-06-07T18:47:33.716Z,8.05
2019-06-07T18:50:03.684Z,10.58
2019-06-07T18:52:35.735Z,13.72
2019-06-07T18:55:06.186Z,8.65
2019-06-07T18:57:37.164Z,9.05
2019-06-07T19:00:08.499Z,9.63
2019-06-07T19:02:40.174Z,9.08
2019-06-07T19:05:14.074Z,10.68
2019-06-07T19:07:43.961Z,10.40
2019-06-07T19:10:14.185Z,15.70
2019-06-07T19:12:44.100Z,12.73
2019-06-07T19:15:15.329Z,13.65
2019-06-07T19:17:45.374Z,10.40
2019-06-07T19:20:18.814Z,9.85
2019-06-07T19:22:49.993Z,12.20
2019-06-07T19:25:20.304Z,13.65
2019-06-07T19:27:50.660Z,10.20
2019-06-07T19:30:22.921Z,9.55
2019-06-07T19:32:53.168Z,11.20
2019-06-07T19:35:23.338Z,11.38
2019-06-07T19:37:53.826Z,11.18
2019-06-07T19:40:24.012Z,10.28
2019-06-07T19:42:58.505Z,12.43
2019-06-07T19:45:31.464Z,13.80
2019-06-07T19:48:00.799Z,12.53
2019-06-07T19:50:30.839Z,13.70
2019-06-07T19:53:01.297Z,12.45
2019-06-07T19:55:33.680Z,11.90
2019-06-07T19:58:03.945Z,12.07
2019-06-07T20:00:34.124Z,12.70
2019-06-07T20:03:04.477Z,11.43
2019-06-07T20:05:34.553Z,14.38
2019-06-07T20:08:04.894Z,14.43
2019-06-07T20:10:35.081Z,14.83
2019-06-07T20:13:05.286Z,11.22
2019-06-07T20:15:35.367Z,12.58
2019-06-07T20:18:05.675Z,11.03
2019-06-07T20:20:35.749Z,14.60
2019-06-07T20:23:05.846Z,12.43
2019-06-07T20:25:35.630Z,11.50
2019-06-07T20:28:05.671Z,12.33
2019-06-07T20:30:35.651Z,14.68
2019-06-07T20:33:06.182Z,13.48
2019-06-07T20:35:36.175Z,16.30
2019-06-07T20:38:06.023Z,13.95
2019-06-07T20:40:35.814Z,15.75
2019-06-07T20:43:05.835Z,16.80
2019-06-07T20:45:35.842Z,17.02
2019-06-07T20:48:06.334Z,14.65
2019-06-07T20:50:36.252Z,16.80
2019-06-07T20:53:07.184Z,13.80
2019-06-07T20:55:37.097Z,15.93
2019-06-07T20:58:07.248Z,14.55
2019-06-07T21:00:37.310Z,19.00
2019-06-07T21:03:07.521Z,14.30
2019-06-07T21:05:37.287Z,14.85
2019-06-07T21:08:09.807Z,17.20
2019-06-07T21:10:38.316Z,12.98
2019-06-07T21:13:08.223Z,18.57
2019-06-07T21:15:48.230Z,12.00
2019-06-07T21:18:18.543Z,18.55
2019-06-07T21:20:40.835Z,13.90
2019-06-07T21:23:12.003Z,15.83
2019-06-07T21:25:42.133Z,13.53
2019-06-07T21:28:12.061Z,17.37
2019-06-07T21:30:41.873Z,17.80
2019-06-07T21:33:11.914Z,15.65
2019-06-07T21:35:42.353Z,13.13
2019-06-07T21:38:12.786Z,14.73
2019-06-07T21:40:42.581Z,18.30
2019-06-07T21:43:12.744Z,16.60
2019-06-07T21:45:42.788Z,16.30
2019-06-07T21:48:14.245Z,15.30
2019-06-07T21:50:43.860Z,16.48
2019-06-07T21:53:13.552Z,17.60
2019-06-07T21:55:43.288Z,16.55
2019-06-07T21:58:13.577Z,14.58
2019-06-07T22:01:25.010Z,15.65
2019-06-07T22:03:54.700Z,21.68
2019-06-07T22:06:24.451Z,17.50
2019-06-07T22:08:54.114Z,16.23
2019-06-07T22:11:23.898Z,16.80
2019-06-07T22:13:53.684Z,17.25
2019-06-07T22:16:28.977Z,16.10
2019-06-07T22:18:54.766Z,18.30
2019-06-07T22:21:24.455Z,15.68
2019-06-07T22:23:54.090Z,19.57
2019-06-07T22:26:23.749Z,19.17
2019-06-07T22:28:53.524Z,22.35
2019-06-07T22:31:23.196Z,22.40
2019-06-07T22:33:52.903Z,21.95
2019-06-07T22:36:22.716Z,28.05
2019-06-07T22:38:52.371Z,21.65
2019-06-07T22:41:22.115Z,22.42
2019-06-07T22:43:51.962Z,21.80
2019-06-07T22:46:36.367Z,23.52
2019-06-07T22:48:52.929Z,24.27
2019-06-07T22:51:22.663Z,23.00
2019-06-07T22:53:52.355Z,28.62
2019-06-07T22:56:30.146Z,21.07
2019-06-07T22:58:59.850Z,23.15
2019-06-07T23:01:29.482Z,23.80
2019-06-07T23:03:59.219Z,24.65
2019-06-07T23:06:28.910Z,24.32
2019-06-07T23:08:58.536Z,24.85
2019-06-07T23:11:28.292Z,21.15
2019-06-07T23:13:57.915Z,25.85
2019-06-07T23:16:27.616Z,19.82
2019-06-07T23:18:57.387Z,26.45
2019-06-07T23:21:27.063Z,23.35
2019-06-07T23:23:56.707Z,27.20
2019-06-07T23:26:26.379Z,26.77
2019-06-07T23:28:56.058Z,25.40
2019-06-07T23:31:25.683Z,23.62
2019-06-07T23:33:55.324Z,21.17
2019-06-07T23:36:25.070Z,22.10
2019-06-07T23:38:54.759Z,25.08
2019-06-07T23:41:24.428Z,23.98
2019-06-07T23:43:54.103Z,26.75
2019-06-07T23:46:23.838Z,22.62
2019-06-07T23:48:53.559Z,21.20
2019-06-07T23:51:23.438Z,27.67
2019-06-07T23:53:53.133Z,26.52
2019-06-07T23:56:22.812Z,26.80
2019-06-07T23:58:52.473Z,27.25
